SBNF

Ministro Victor Konder International Airport

Navegantes, Brazil
TAF SBNF 200200Z 2006/2106 22006KT 9999 SCT020 TN22/2008Z TX32/2018Z PROB30 2008/2011 4000 BR BKN006 BECMG 2012/2014 15005KT PROB40 TEMPO 2018/2022 VCSH BKN025 FEW030TCU BECMG 2100/2102 24005KT RMK PEL
Issued Valid From Valid To
Jan-20 @ 02:00 UTC
(10 hours ago)
Jan-20 @ 06:00 UTC
(6 hours ago)
Jan-21 @ 06:00 UTC
(in 18 hours)
Jan-20 @ 06:00 to Jan-20 @ 12:00
TAF SBNF 200200Z 2006/2106 22006KT 9999 SCT020 TN22/2008Z TX32/2018Z
Wind Visibility Clouds
220° at 6 knots 10,000+ meters
  • Scattered at 2,000' AGL
Expired Click to View Jan-20 @ 08:00 to Jan-20 @ 11:00
PROB30 2008/2011 4000 BR BKN006
Visibility Clouds Conditions
4,007 meters
  • Broken at 600' AGL
  • Mist
Becoming Jan-20 @ 12:00 to Jan-21 @ 00:00
BECMG 2012/2014 15005KT
Wind Visibility Clouds
150° at 5 knots 10,000+ meters
  • Scattered at 2,000' AGL
Temporary  (Probability 40%) Jan-20 @ 18:00 to Jan-20 @ 22:00
PROB40 TEMPO 2018/2022 VCSH BKN025 FEW030TCU
Clouds
  • Broken at 2,500' AGL
  • Few at 3,000' AGL
Becoming Jan-21 @ 00:00 to Jan-21 @ 06:00
BECMG 2100/2102 24005KT RMK PEL
Wind Visibility Clouds
240° at 5 knots 10,000+ meters
  • Scattered at 2,000' AGL
TAF SBNF 200200Z 2006/2106 22006KT 9999 SCT020 TN22/2008Z TX32/2018Z PROB30 2008/2011 4000 BR BKN006 BECMG 2012/2014 15005KT PROB40 TEMPO 2018/2022 VCSH BKN025 FEW030TCU BECMG 2100/2102 24005KT RMK PEL
Issued Jan-20 @ 02:00 UTC
(10 hours ago)
Valid From Jan-20 @ 06:00 UTC
(6 hours ago)
Valid To Jan-21 @ 06:00 UTC
(in 18 hours)
Jan-20 @ 06:00 - Jan-20 @ 12:00
Wind Visibility
220° at 6 knots 10,000+ meters
Clouds
  • Scattered at 2,000' AGL
Jan-20 @ 08:00 - Jan-20 @ 11:00
Clouds
  • Broken at 600' AGL
Conditions
  • Mist
Becoming Jan-20 @ 12:00 - Jan-21 @ 00:00
Wind Visibility
150° at 5 knots 10,000+ meters
Clouds
  • Scattered at 2,000' AGL
Probability 40% Temporary Jan-20 @ 18:00 - Jan-20 @ 22:00
Clouds
  • Broken at 2,500' AGL
  • Few at 3,000' AGL
Becoming Jan-21 @ 00:00 - Jan-21 @ 06:00
Wind Visibility
240° at 5 knots 10,000+ meters
Clouds
  • Scattered at 2,000' AGL